createdAt,value
2022-09-05T00:00:19.685Z,7.23
2022-09-05T00:03:32.130Z,8.10
2022-09-05T00:06:10.504Z,5.73
2022-09-05T00:08:59.234Z,7.30
2022-09-05T00:11:46.829Z,6.23
2022-09-05T00:15:17.055Z,6.97
2022-09-05T00:19:22.897Z,6.30
2022-09-05T00:24:28.685Z,6.17
2022-09-05T00:25:01.008Z,6.90
2022-09-05T00:27:58.068Z,6.23
2022-09-05T00:31:50.908Z,7.00
2022-09-05T00:33:52.900Z,6.60
2022-09-05T00:36:47.400Z,7.23
2022-09-05T00:39:26.240Z,6.97
2022-09-05T00:41:59.288Z,7.60
2022-09-05T00:44:33.225Z,7.60
2022-09-05T00:47:36.549Z,6.67
2022-09-05T00:50:23.068Z,6.87
2022-09-05T00:53:15.225Z,6.80
2022-09-05T00:56:38.634Z,7.50
2022-09-05T01:00:01.304Z,8.40
2022-09-05T01:03:16.430Z,8.00
2022-09-05T01:05:49.571Z,9.10
2022-09-05T01:08:50.444Z,7.87
2022-09-05T01:11:27.815Z,7.73
2022-09-05T01:14:26.530Z,8.57
2022-09-05T01:17:05.718Z,8.40
2022-09-05T01:19:44.209Z,9.20
2022-09-05T01:22:48.005Z,10.00
2022-09-05T01:26:02.834Z,9.27
2022-09-05T01:29:20.037Z,8.63
2022-09-05T01:32:31.694Z,10.30
2022-09-05T01:35:26.488Z,9.97
2022-09-05T01:38:25.989Z,10.30
2022-09-05T01:41:44.035Z,9.70
2022-09-05T01:44:22.088Z,9.63
2022-09-05T01:47:28.441Z,11.10
2022-09-05T01:50:16.165Z,10.03
2022-09-05T01:53:04.815Z,11.00
2022-09-05T01:56:24.691Z,9.83
2022-09-05T01:59:34.350Z,9.27
2022-09-05T02:02:33.138Z,9.87
2022-09-05T02:05:06.163Z,9.67
2022-09-05T02:08:02.115Z,8.13
2022-09-05T02:11:04.685Z,8.33
2022-09-05T02:13:34.401Z,9.80
2022-09-05T02:16:38.454Z,9.63
2022-09-05T02:19:15.115Z,10.30
2022-09-05T02:22:11.085Z,9.80
2022-09-05T02:24:49.344Z,9.30
2022-09-05T02:28:04.823Z,11.23
2022-09-05T02:30:47.421Z,10.07
2022-09-05T02:33:40.804Z,8.70
2022-09-05T02:36:07.889Z,9.50
2022-09-05T02:45:02.858Z,9.90
2022-09-05T02:45:17.726Z,9.20
2022-09-05T02:45:27.288Z,9.10
2022-09-05T02:48:45.390Z,8.67
2022-09-05T02:57:25.098Z,7.70
2022-09-05T02:57:42.650Z,8.10
2022-09-05T02:58:07.176Z,9.07
2022-09-05T03:00:44.173Z,8.93
2022-09-05T03:03:29.624Z,9.53
2022-09-05T03:06:26.071Z,9.67
2022-09-05T03:09:24.606Z,9.40
2022-09-05T03:12:28.939Z,10.47
2022-09-05T03:15:52.715Z,9.90
2022-09-05T03:18:31.205Z,11.30
2022-09-05T03:21:41.724Z,10.47
2022-09-05T03:24:11.411Z,10.67
2022-09-05T03:27:12.468Z,10.87
2022-09-05T03:29:58.433Z,11.47
2022-09-05T03:33:06.050Z,9.90
2022-09-05T03:35:54.790Z,11.33
2022-09-05T03:38:44.659Z,11.30
2022-09-05T03:41:46.794Z,11.70
2022-09-05T03:45:07.819Z,11.00
2022-09-05T03:48:28.397Z,13.13
2022-09-05T03:57:13.603Z,9.33
2022-09-05T03:57:22.569Z,9.60
2022-09-05T03:58:16.845Z,10.40
2022-09-05T04:03:09.181Z,9.93
2022-09-05T04:08:14.568Z,9.47
2022-09-05T04:08:15.214Z,9.13
2022-09-05T04:10:56.990Z,9.50
2022-09-05T04:13:34.624Z,9.27
2022-09-05T04:16:29.757Z,9.50
2022-09-05T04:19:17.660Z,9.53
2022-09-05T04:22:30.064Z,9.70
2022-09-05T04:25:30.379Z,10.20
2022-09-05T04:28:06.125Z,9.17
2022-09-05T04:30:55.710Z,11.20
2022-09-05T04:33:37.830Z,10.67
2022-09-05T04:36:28.585Z,12.23
2022-09-05T04:39:19.730Z,11.93
2022-09-05T04:42:35.933Z,12.00
2022-09-05T04:45:12.509Z,12.70
2022-09-05T04:47:52.770Z,11.43
2022-09-05T04:50:25.097Z,12.27
2022-09-05T04:53:32.529Z,11.93
2022-09-05T04:56:02.554Z,11.03
2022-09-05T05:00:48.435Z,12.83
2022-09-05T05:06:02.511Z,11.77
2022-09-05T05:06:15.295Z,12.53
2022-09-05T05:07:27.402Z,11.60
2022-09-05T05:10:45.255Z,11.60
2022-09-05T05:17:25.354Z,13.27
2022-09-05T05:18:06.170Z,12.60
2022-09-05T05:19:06.176Z,12.80
2022-09-05T05:21:53.715Z,12.33
2022-09-05T05:24:37.064Z,14.00
2022-09-05T05:27:25.429Z,12.93
2022-09-05T05:30:07.421Z,13.20
2022-09-05T05:32:45.517Z,13.57
2022-09-05T05:35:25.984Z,13.07
2022-09-05T05:38:30.294Z,13.90
2022-09-05T05:41:21.974Z,14.33
2022-09-05T05:43:51.136Z,13.97
2022-09-05T05:46:34.787Z,14.73
2022-09-05T05:49:35.929Z,14.03
2022-09-05T05:52:31.770Z,14.23
2022-09-05T05:55:51.357Z,16.80
2022-09-05T05:58:53.955Z,16.27
2022-09-05T06:02:02.807Z,15.07
2022-09-05T06:04:50.648Z,15.27
2022-09-05T06:08:42.590Z,17.00
2022-09-05T06:14:50.163Z,17.57
2022-09-05T06:15:08.744Z,19.10
2022-09-05T06:18:19.010Z,18.30
2022-09-05T06:22:06.275Z,18.33
2022-09-05T06:24:24.503Z,17.43
2022-09-05T06:27:14.564Z,16.67
2022-09-05T06:29:47.594Z,17.20
2022-09-05T06:32:58.757Z,17.57
2022-09-05T06:35:38.059Z,16.90
2022-09-05T06:38:32.029Z,17.77
2022-09-05T06:41:29.634Z,16.10
2022-09-05T06:44:26.211Z,16.27
2022-09-05T06:47:23.881Z,16.70
2022-09-05T06:50:27.567Z,18.33
2022-09-05T06:53:48.782Z,17.73
2022-09-05T06:56:28.721Z,18.00
2022-09-05T06:59:38.128Z,17.00
2022-09-05T07:02:58.091Z,19.13
2022-09-05T07:05:39.541Z,17.27
2022-09-05T07:08:37.199Z,18.73
2022-09-05T07:11:17.264Z,17.00
2022-09-05T07:13:57.807Z,17.20
2022-09-05T07:16:51.158Z,15.43
2022-09-05T07:19:27.844Z,15.23
2022-09-05T07:22:48.352Z,16.83
2022-09-05T07:25:31.596Z,15.43
2022-09-05T07:28:26.475Z,13.00
2022-09-05T07:31:09.120Z,12.50
2022-09-05T07:33:40.402Z,12.70
2022-09-05T07:36:19.942Z,14.57
2022-09-05T07:39:02.450Z,15.35
2022-09-05T07:41:39.662Z,14.70
2022-09-05T07:44:24.152Z,16.30
2022-09-05T07:47:05.376Z,15.03
2022-09-05T07:49:42.314Z,15.03
2022-09-05T07:56:47.696Z,15.83
2022-09-05T07:57:01.605Z,15.17
2022-09-05T07:58:42.167Z,15.70
2022-09-05T08:01:13.727Z,15.07
2022-09-05T08:03:44.212Z,15.60
2022-09-05T08:06:46.435Z,15.77
2022-09-05T08:10:06.233Z,17.50
2022-09-05T08:13:24.307Z,16.30
2022-09-05T08:16:13.594Z,15.93
2022-09-05T08:18:46.217Z,17.67
2022-09-05T08:21:42.172Z,16.67
2022-09-05T08:24:28.864Z,14.20
2022-09-05T08:27:10.088Z,16.17
2022-09-05T08:30:24.567Z,15.17
2022-09-05T08:33:11.288Z,15.40
2022-09-05T08:35:47.318Z,15.63
2022-09-05T08:38:15.780Z,14.00
2022-09-05T08:40:55.252Z,14.13
2022-09-05T08:46:35.945Z,13.20
2022-09-05T08:46:49.873Z,12.93
2022-09-05T08:49:44.007Z,13.40
2022-09-05T08:52:28.897Z,14.83
2022-09-05T08:55:39.166Z,14.57
2022-09-05T08:58:46.726Z,14.97
2022-09-05T09:02:44.606Z,15.70
2022-09-05T09:05:14.263Z,13.97
2022-09-05T09:08:15.828Z,14.00
2022-09-05T09:10:57.526Z,12.30
2022-09-05T09:14:30.484Z,13.70
2022-09-05T09:17:32.044Z,13.10
2022-09-05T09:20:15.318Z,14.73
2022-09-05T09:22:50.929Z,13.87
2022-09-05T09:25:30.750Z,13.80
2022-09-05T09:28:52.195Z,13.50
2022-09-05T09:32:11.084Z,13.13
2022-09-05T09:35:06.151Z,12.90
2022-09-05T09:38:14.113Z,10.83
2022-09-05T09:41:08.125Z,12.93
2022-09-05T09:44:26.745Z,12.33
2022-09-05T09:46:54.109Z,11.80
2022-09-05T09:50:10.138Z,12.07
2022-09-05T09:53:01.580Z,10.43
2022-09-05T09:56:06.758Z,11.00
2022-09-05T09:58:45.839Z,11.50
2022-09-05T10:01:36.418Z,12.83
2022-09-05T10:10:33.367Z,10.30
2022-09-05T10:10:59.633Z,10.47
2022-09-05T10:14:49.757Z,9.00
2022-09-05T10:17:53.368Z,8.67
2022-09-05T10:21:15.060Z,9.17
2022-09-05T10:24:33.665Z,7.83
2022-09-05T10:27:44.572Z,9.17
2022-09-05T10:31:20.736Z,7.33
2022-09-05T10:35:05.903Z,8.23
2022-09-05T10:36:54.766Z,7.30
2022-09-05T10:39:26.854Z,6.90
2022-09-05T10:42:10.930Z,6.40
2022-09-05T10:44:45.820Z,8.07
2022-09-05T10:47:57.951Z,6.90
2022-09-05T10:50:49.874Z,5.83
2022-09-05T10:53:41.491Z,5.87
2022-09-05T10:56:28.600Z,5.53
2022-09-05T11:02:16.333Z,5.23
2022-09-05T11:02:25.903Z,5.17
2022-09-05T11:05:26.854Z,4.47
2022-09-05T11:08:24.053Z,5.00
2022-09-05T11:11:33.998Z,4.60
2022-09-05T11:14:26.599Z,5.27
2022-09-05T11:17:20.811Z,4.80
2022-09-05T11:20:34.502Z,4.30
2022-09-05T11:23:19.509Z,4.23
2022-09-05T11:25:53.663Z,4.00
2022-09-05T11:28:57.479Z,5.07
2022-09-05T11:33:48.514Z,4.47
2022-09-05T11:39:47.983Z,4.70
2022-09-05T11:40:09.969Z,4.13
2022-09-05T11:41:35.018Z,4.03
2022-09-05T11:44:34.119Z,4.00
2022-09-05T11:47:49.484Z,4.17
2022-09-05T11:50:41.297Z,4.83
2022-09-05T11:53:39.484Z,5.07
2022-09-05T11:56:45.561Z,4.90
2022-09-05T11:59:45.022Z,4.37
2022-09-05T12:02:39.433Z,4.43
2022-09-05T12:05:59.316Z,4.47
2022-09-05T12:08:53.041Z,4.80
2022-09-05T12:12:29.984Z,4.80
2022-09-05T12:15:08.087Z,4.70
2022-09-05T12:18:19.425Z,5.57
2022-09-05T12:21:22.280Z,5.07
2022-09-05T12:24:49.773Z,4.90
2022-09-05T12:27:39.059Z,5.40
2022-09-05T12:30:09.258Z,4.83
2022-09-05T12:34:49.636Z,5.37
2022-09-05T12:36:12.298Z,5.40
2022-09-05T12:40:56.247Z,4.93
2022-09-05T12:42:27.840Z,5.67
2022-09-05T12:45:09.741Z,5.90
2022-09-05T12:48:12.515Z,4.93
2022-09-05T12:50:54.848Z,5.00
2022-09-05T12:53:35.509Z,6.00
2022-09-05T12:57:01.066Z,5.23
2022-09-05T13:02:55.347Z,5.60
2022-09-05T13:03:14.678Z,6.07
2022-09-05T13:05:01.480Z,6.30
2022-09-05T13:07:45.345Z,5.97
2022-09-05T13:13:29.018Z,4.87
2022-09-05T13:15:03.212Z,5.80
2022-09-05T13:16:23.117Z,6.00
2022-09-05T13:19:02.462Z,5.83
2022-09-05T13:21:31.455Z,5.20
2022-09-05T13:24:17.679Z,5.23
2022-09-05T13:26:58.010Z,6.17
2022-09-05T13:29:49.639Z,5.33
2022-09-05T13:38:00.573Z,4.97
2022-09-05T13:38:10.026Z,5.70
2022-09-05T13:38:48.154Z,5.43
2022-09-05T13:41:26.980Z,5.90
2022-09-05T13:44:00.501Z,5.10
2022-09-05T13:47:28.794Z,5.10
2022-09-05T13:50:53.240Z,5.10
2022-09-05T13:53:37.011Z,5.53
2022-09-05T13:56:28.320Z,5.40
2022-09-05T13:59:16.921Z,5.20
2022-09-05T14:02:26.288Z,3.93
2022-09-05T14:05:27.781Z,4.00
2022-09-05T14:08:35.412Z,4.40
2022-09-05T14:11:48.201Z,5.20
2022-09-05T14:18:20.907Z,3.97
2022-09-05T14:21:18.038Z,4.03
2022-09-05T14:24:09.891Z,3.80
2022-09-05T14:27:16.083Z,4.10
2022-09-05T14:29:56.094Z,4.00
2022-09-05T14:37:45.734Z,4.10
2022-09-05T14:37:48.609Z,3.77
2022-09-05T14:39:49.257Z,4.50
2022-09-05T14:42:51.658Z,4.60
2022-09-05T14:46:00.549Z,5.57
2022-09-05T14:48:59.905Z,5.13
2022-09-05T14:51:39.628Z,4.90
2022-09-05T15:01:53.399Z,4.40
2022-09-05T15:02:50.437Z,4.53
2022-09-05T15:03:12.863Z,4.23
2022-09-05T15:05:50.451Z,5.07
2022-09-05T15:11:15.258Z,4.80
2022-09-05T15:12:20.730Z,4.83
2022-09-05T15:14:13.656Z,5.70
2022-09-05T15:16:57.511Z,4.67
2022-09-05T15:20:05.837Z,4.90
2022-09-05T15:22:37.842Z,5.60
2022-09-05T15:25:21.485Z,5.93
2022-09-05T15:27:49.696Z,5.73
2022-09-05T15:30:35.049Z,5.40
2022-09-05T15:33:28.573Z,5.63
2022-09-05T15:35:58.405Z,5.40
2022-09-05T15:38:33.565Z,5.30
2022-09-05T15:41:28.699Z,6.00
2022-09-05T15:44:09.424Z,6.00
2022-09-05T15:46:39.659Z,5.43
2022-09-05T15:49:24.602Z,7.17
2022-09-05T15:51:56.908Z,5.87
2022-09-05T15:54:40.434Z,6.30
2022-09-05T15:57:18.425Z,5.57
2022-09-05T15:59:49.408Z,6.47
2022-09-05T16:02:26.098Z,6.90
2022-09-05T16:10:27.108Z,6.83
2022-09-05T16:10:42.608Z,5.93
2022-09-05T16:12:08.985Z,6.20
2022-09-05T16:14:45.189Z,5.80
2022-09-05T16:23:16.883Z,5.67
2022-09-05T16:23:27.785Z,6.40
2022-09-05T16:23:43.149Z,6.30
2022-09-05T16:26:25.122Z,5.23
2022-09-05T16:29:31.341Z,6.00
2022-09-05T16:32:02.371Z,5.63
2022-09-05T16:34:47.590Z,6.67
2022-09-05T16:37:22.683Z,6.70
2022-09-05T16:40:08.147Z,6.00
2022-09-05T16:43:05.970Z,7.63
2022-09-05T16:45:45.056Z,7.33
2022-09-05T16:48:39.370Z,6.57
2022-09-05T16:51:38.295Z,6.50
2022-09-05T16:54:29.264Z,5.80
2022-09-05T16:57:31.500Z,6.03
2022-09-05T16:59:59.107Z,6.70
2022-09-05T17:02:48.682Z,6.53
2022-09-05T17:05:46.307Z,6.63
2022-09-05T17:08:25.960Z,7.00
2022-09-05T17:11:13.747Z,7.50
2022-09-05T17:14:03.705Z,6.50
2022-09-05T17:16:44.635Z,7.47
2022-09-05T17:19:22.348Z,7.17
2022-09-05T17:28:43.091Z,7.43
2022-09-05T17:29:33.141Z,7.30
2022-09-05T17:29:40.005Z,7.63
2022-09-05T17:31:58.554Z,7.57
2022-09-05T17:35:16.476Z,7.83
2022-09-05T17:38:22.299Z,7.70
2022-09-05T17:41:44.637Z,8.90
2022-09-05T17:44:46.661Z,9.47
2022-09-05T17:47:48.422Z,8.50
2022-09-05T17:50:44.294Z,7.87
2022-09-05T17:53:25.706Z,8.50
2022-09-05T17:55:55.351Z,9.50
2022-09-05T17:58:49.867Z,9.43
2022-09-05T18:01:29.406Z,9.43
2022-09-05T18:04:16.149Z,8.70
2022-09-05T18:06:59.599Z,9.90
2022-09-05T18:09:40.140Z,10.40
2022-09-05T18:13:13.902Z,8.90
2022-09-05T18:15:39.002Z,10.00
2022-09-05T18:18:55.945Z,10.40
2022-09-05T18:21:21.091Z,9.80
2022-09-05T18:24:00.961Z,10.20
2022-09-05T18:26:42.236Z,9.97
2022-09-05T18:29:31.002Z,10.67
2022-09-05T18:32:12.867Z,10.00
2022-09-05T18:34:43.300Z,10.73
2022-09-05T18:37:39.304Z,10.97
2022-09-05T18:40:16.555Z,12.43
2022-09-05T18:43:13.673Z,10.90
2022-09-05T18:45:52.135Z,10.67
2022-09-05T18:48:33.297Z,10.90
2022-09-05T18:51:15.116Z,11.27
2022-09-05T18:53:47.661Z,10.43
2022-09-05T18:57:26.777Z,10.87
2022-09-05T19:00:07.184Z,10.90
2022-09-05T19:02:59.097Z,10.07
2022-09-05T19:05:49.000Z,10.83
2022-09-05T19:08:29.293Z,11.00
2022-09-05T19:11:27.403Z,10.80
2022-09-05T19:13:54.147Z,11.17
2022-09-05T19:16:47.801Z,10.63
2022-09-05T19:19:24.776Z,9.87
2022-09-05T19:22:58.927Z,9.87
2022-09-05T19:24:50.950Z,10.33
2022-09-05T19:28:17.278Z,10.27
2022-09-05T19:36:50.415Z,11.50
2022-09-05T19:36:57.367Z,10.20
2022-09-05T19:37:04.961Z,10.57
2022-09-05T19:40:20.459Z,9.90
2022-09-05T19:47:36.033Z,10.60
2022-09-05T19:47:49.188Z,11.37
2022-09-05T19:50:28.418Z,10.07
2022-09-05T19:53:07.217Z,10.40
2022-09-05T19:55:38.983Z,10.27
2022-09-05T19:58:20.871Z,10.67
2022-09-05T20:01:09.903Z,11.87
2022-09-05T20:03:43.469Z,11.13
2022-09-05T20:06:28.951Z,11.60
2022-09-05T20:09:21.024Z,10.80
2022-09-05T20:11:51.579Z,11.10
2022-09-05T20:14:25.248Z,11.20
2022-09-05T20:16:56.881Z,12.23
2022-09-05T20:19:28.274Z,11.33
2022-09-05T20:22:05.502Z,12.27
2022-09-05T20:24:51.330Z,11.20
2022-09-05T20:27:19.353Z,11.93
2022-09-05T20:30:07.077Z,12.00
2022-09-05T20:32:47.894Z,10.90
2022-09-05T20:39:07.086Z,11.30
2022-09-05T20:43:31.115Z,12.10
2022-09-05T20:43:35.469Z,12.60
2022-09-05T20:44:53.654Z,12.03
2022-09-05T20:51:33.262Z,11.70
2022-09-05T20:54:15.414Z,13.43
2022-09-05T20:54:27.970Z,12.13
2022-09-05T20:56:31.043Z,12.43
2022-09-05T20:58:59.269Z,12.03
2022-09-05T21:01:27.516Z,13.20
2022-09-05T21:03:58.644Z,12.10
2022-09-05T21:06:34.958Z,11.90
2022-09-05T21:09:26.067Z,10.60
2022-09-05T21:11:56.301Z,13.43
2022-09-05T21:14:27.538Z,14.17
2022-09-05T21:17:04.901Z,14.53
2022-09-05T21:19:42.418Z,14.20
2022-09-05T21:22:18.604Z,14.30
2022-09-05T21:24:47.477Z,14.77
2022-09-05T21:27:25.843Z,13.80
2022-09-05T21:29:58.833Z,14.00
2022-09-05T21:32:38.580Z,14.50
2022-09-05T21:35:33.716Z,14.73
2022-09-05T21:37:59.173Z,14.40
2022-09-05T21:40:26.288Z,16.47
2022-09-05T21:47:34.912Z,16.33
2022-09-05T21:47:35.794Z,14.50
2022-09-05T21:48:29.566Z,14.60
2022-09-05T21:51:03.893Z,15.60
2022-09-05T21:59:06.813Z,15.60
2022-09-05T21:59:27.092Z,18.00
2022-09-05T21:59:46.103Z,17.50
2022-09-05T22:02:14.918Z,18.47
2022-09-05T22:04:42.132Z,17.70
2022-09-05T22:07:31.630Z,18.90
2022-09-05T23:05:03.167Z,14.97
2022-09-05T23:07:30.209Z,16.77
2022-09-05T23:09:57.166Z,16.53
2022-09-05T23:12:25.254Z,17.40
2022-09-05T23:14:52.910Z,18.37
2022-09-05T23:17:19.985Z,18.07
2022-09-05T23:19:46.979Z,17.70
2022-09-05T23:22:14.044Z,17.50
2022-09-05T23:24:41.047Z,15.70
2022-09-05T23:27:08.110Z,17.77
2022-09-05T23:29:35.179Z,16.70
2022-09-05T23:32:02.425Z,18.30
2022-09-05T23:34:29.458Z,17.77
2022-09-05T23:36:56.379Z,18.83
2022-09-05T23:39:23.578Z,18.30
2022-09-05T23:41:50.651Z,19.43
2022-09-05T23:44:18.049Z,19.30
2022-09-05T23:46:45.010Z,20.27
2022-09-05T23:49:12.035Z,19.60
2022-09-05T23:51:38.975Z,21.20
2022-09-05T23:54:06.050Z,19.67
2022-09-05T23:56:33.080Z,19.00
2022-09-05T23:59:00.068Z,18.10
